createdAt,value
2023-01-04T00:02:03.883Z,8.70
2023-01-04T00:04:33.688Z,8.70
2023-01-04T00:07:02.127Z,8.70
2023-01-04T00:09:30.572Z,8.70
2023-01-04T00:11:59.034Z,8.70
2023-01-04T00:14:27.614Z,8.60
2023-01-04T00:16:56.083Z,8.60
2023-01-04T00:19:24.679Z,8.70
2023-01-04T00:21:54.527Z,8.60
2023-01-04T00:24:23.108Z,8.60
2023-01-04T00:26:51.587Z,8.60
2023-01-04T00:29:20.057Z,8.70
2023-01-04T00:31:48.636Z,8.60
2023-01-04T00:34:18.922Z,8.70
2023-01-04T00:36:47.686Z,8.70
2023-01-04T00:39:18.231Z,8.60
2023-01-04T00:41:58.787Z,8.60
2023-01-04T00:44:28.165Z,8.70
2023-01-04T00:46:57.057Z,8.60
2023-01-04T00:49:25.837Z,8.60
2023-01-04T00:51:54.462Z,8.70
2023-01-04T00:54:24.551Z,8.70
2023-01-04T00:56:53.373Z,8.80
2023-01-04T00:59:22.706Z,8.70
2023-01-04T01:01:52.226Z,8.70
2023-01-04T01:04:24.146Z,8.70
2023-01-04T01:06:53.354Z,8.80
2023-01-04T01:09:23.854Z,8.70
2023-01-04T01:11:53.439Z,8.80
2023-01-04T01:14:23.738Z,8.80
2023-01-04T01:16:55.841Z,8.80
2023-01-04T01:19:24.848Z,8.80
2023-01-04T01:21:53.364Z,8.90
2023-01-04T01:24:22.110Z,8.90
2023-01-04T01:26:51.957Z,8.90
2023-01-04T01:29:20.377Z,8.90
2023-01-04T01:31:48.991Z,8.90
2023-01-04T01:34:17.551Z,8.90
2023-01-04T01:36:46.091Z,9.00
2023-01-04T01:39:14.742Z,9.00
2023-01-04T01:41:43.463Z,9.00
2023-01-04T01:44:45.450Z,9.00
2023-01-04T01:47:18.592Z,9.10
2023-01-04T01:49:49.252Z,9.10
2023-01-04T01:52:22.776Z,9.10
2023-01-04T01:54:55.277Z,9.20
2023-01-04T01:57:28.044Z,9.20
2023-01-04T02:00:00.170Z,9.20
2023-01-04T02:02:30.581Z,9.30
2023-01-04T02:05:00.543Z,9.30
2023-01-04T02:07:29.919Z,9.30
2023-01-04T02:09:59.322Z,9.30
2023-01-04T02:12:27.845Z,9.40
2023-01-04T02:14:56.306Z,9.40
2023-01-04T02:17:34.726Z,9.40
2023-01-04T02:20:38.842Z,9.40
2023-01-04T02:23:52.378Z,9.50
2023-01-04T02:27:00.688Z,9.50
2023-01-04T02:30:10.967Z,9.50
2023-01-04T02:32:59.422Z,9.60
2023-01-04T02:35:34.565Z,9.60
2023-01-04T02:38:11.555Z,9.60
2023-01-04T02:40:48.916Z,9.60
2023-01-04T02:43:43.135Z,9.60
2023-01-04T02:46:17.322Z,9.70
2023-01-04T02:49:04.485Z,9.70
2023-01-04T02:51:34.975Z,9.70
2023-01-04T02:54:07.957Z,9.70
2023-01-04T02:56:58.374Z,9.80
2023-01-04T02:59:51.895Z,9.80
2023-01-04T03:03:01.666Z,9.80
2023-01-04T03:05:58.534Z,9.80
2023-01-04T03:08:34.125Z,9.90
2023-01-04T03:11:05.806Z,9.90
2023-01-04T03:13:38.789Z,9.90
2023-01-04T03:16:12.163Z,9.90
2023-01-04T03:18:45.543Z,9.90
2023-01-04T03:21:17.656Z,10.00
2023-01-04T03:24:05.387Z,10.00
2023-01-04T03:26:55.548Z,10.00
2023-01-04T03:29:50.516Z,10.00
2023-01-04T03:32:49.146Z,10.10
2023-01-04T03:35:28.193Z,10.10
2023-01-04T03:38:22.815Z,10.10
2023-01-04T03:41:16.465Z,10.10
2023-01-04T03:44:10.533Z,10.20
2023-01-04T03:47:02.169Z,10.20
2023-01-04T03:49:37.760Z,10.20
2023-01-04T03:52:08.801Z,10.20
2023-01-04T03:54:42.410Z,10.30
2023-01-04T03:57:12.964Z,10.30
2023-01-04T03:59:46.642Z,10.30
2023-01-04T04:02:19.375Z,10.40
2023-01-04T04:05:05.468Z,10.40
2023-01-04T04:07:51.380Z,10.30
2023-01-04T04:10:21.186Z,10.50
2023-01-04T04:12:49.852Z,10.50
2023-01-04T04:15:18.479Z,10.50
2023-01-04T04:17:46.907Z,10.60
2023-01-04T04:20:15.489Z,10.60
2023-01-04T04:22:44.114Z,10.60
2023-01-04T04:25:12.532Z,10.70
2023-01-04T04:27:42.391Z,10.70
2023-01-04T04:30:11.396Z,10.80
2023-01-04T04:32:39.885Z,10.80
2023-01-04T04:35:09.041Z,10.80
2023-01-04T04:37:37.553Z,10.80
2023-01-04T04:40:06.512Z,10.90
2023-01-04T04:42:33.987Z,10.90
2023-01-04T04:45:03.789Z,10.90
2023-01-04T04:47:32.211Z,10.90
2023-01-04T04:50:00.602Z,11.00
2023-01-04T04:52:29.065Z,11.00
2023-01-04T04:54:57.518Z,11.00
2023-01-04T04:57:26.093Z,11.00
2023-01-04T04:59:54.542Z,11.00
2023-01-04T05:02:24.469Z,11.00
2023-01-04T05:04:53.099Z,11.00
2023-01-04T05:07:21.547Z,11.00
2023-01-04T05:09:50.006Z,11.00
2023-01-04T05:12:35.840Z,11.00
2023-01-04T05:15:04.537Z,11.00
2023-01-04T05:17:34.349Z,11.10
2023-01-04T05:20:02.951Z,11.10
2023-01-04T05:22:31.541Z,11.10
2023-01-04T05:25:00.005Z,11.10
2023-01-04T05:27:28.487Z,11.10
2023-01-04T05:30:14.271Z,11.10
2023-01-04T05:32:44.471Z,11.10
2023-01-04T05:35:12.954Z,11.10
2023-01-04T05:37:41.405Z,11.10
2023-01-04T05:40:10.818Z,11.00
2023-01-04T05:42:39.424Z,11.00
2023-01-04T05:45:08.560Z,11.00
2023-01-04T05:47:37.335Z,11.00
2023-01-04T05:50:08.536Z,11.00
2023-01-04T05:52:37.752Z,11.00
2023-01-04T05:55:07.114Z,11.00
2023-01-04T05:57:35.568Z,11.00
2023-01-04T06:00:04.898Z,11.00
2023-01-04T06:02:43.082Z,11.00
2023-01-04T06:05:13.317Z,11.10
2023-01-04T06:07:42.356Z,11.00
2023-01-04T06:10:12.972Z,11.00
2023-01-04T06:12:41.885Z,11.00
2023-01-04T06:15:12.083Z,11.10
2023-01-04T06:17:41.092Z,11.10
2023-01-04T06:20:13.079Z,11.10
2023-01-04T06:22:42.993Z,11.10
2023-01-04T06:25:11.919Z,11.10
2023-01-04T06:27:40.393Z,11.10
2023-01-04T06:30:10.034Z,11.10
2023-01-04T06:32:38.512Z,11.10
2023-01-04T06:35:07.434Z,11.20
2023-01-04T06:37:37.264Z,11.20
2023-01-04T06:40:06.907Z,11.20
2023-01-04T06:42:47.364Z,11.20
2023-01-04T06:45:17.251Z,11.20
2023-01-04T06:47:47.858Z,11.30
2023-01-04T06:50:16.557Z,11.30
2023-01-04T06:52:46.393Z,11.30
2023-01-04T06:55:14.844Z,11.30
2023-01-04T06:57:43.319Z,11.30
2023-01-04T07:00:13.068Z,11.40
2023-01-04T07:03:13.991Z,11.30
2023-01-04T07:05:30.182Z,11.30
2023-01-04T07:08:07.722Z,11.30
2023-01-04T07:10:36.966Z,11.30
2023-01-04T07:13:05.677Z,11.30
2023-01-04T07:15:38.561Z,11.30
2023-01-04T07:18:09.177Z,11.40
2023-01-04T07:20:38.149Z,11.40
2023-01-04T07:23:09.126Z,11.30
2023-01-04T07:25:37.913Z,11.30
2023-01-04T07:28:06.586Z,11.40
2023-01-04T07:30:35.129Z,11.40
2023-01-04T07:33:03.718Z,11.40
2023-01-04T07:35:32.230Z,11.40
2023-01-04T07:38:00.777Z,11.50
2023-01-04T07:40:30.594Z,11.40
2023-01-04T07:43:00.306Z,11.40
2023-01-04T07:45:28.818Z,11.40
2023-01-04T07:47:58.950Z,11.40
2023-01-04T07:50:27.710Z,11.40
2023-01-04T07:52:57.128Z,11.40
2023-01-04T07:55:25.547Z,11.40
2023-01-04T07:57:55.771Z,11.40
2023-01-04T08:00:24.441Z,11.40
2023-01-04T08:02:53.031Z,11.40
2023-01-04T08:05:22.897Z,11.40
2023-01-04T08:07:51.790Z,11.40
2023-01-04T08:10:20.244Z,11.40
2023-01-04T08:12:48.676Z,11.40
2023-01-04T08:15:19.547Z,11.40
2023-01-04T08:17:47.988Z,11.40
2023-01-04T08:20:16.559Z,11.40
2023-01-04T08:22:45.076Z,11.50
2023-01-04T08:25:13.503Z,11.50
2023-01-04T08:27:42.380Z,11.40
2023-01-04T08:30:11.650Z,11.50
2023-01-04T08:32:42.119Z,11.50
2023-01-04T08:35:10.905Z,11.50
2023-01-04T08:37:39.393Z,11.50
2023-01-04T08:40:09.514Z,11.50
2023-01-04T08:42:38.113Z,11.60
2023-01-04T08:45:07.745Z,11.60
2023-01-04T08:47:36.196Z,11.60
2023-01-04T08:50:10.790Z,11.60
2023-01-04T08:52:39.653Z,11.60
2023-01-04T08:55:13.199Z,11.60
2023-01-04T08:57:43.439Z,11.60
2023-01-04T09:00:12.940Z,11.60
2023-01-04T09:02:41.610Z,11.70
2023-01-04T09:05:22.229Z,11.60
2023-01-04T09:07:51.675Z,11.60
2023-01-04T09:10:20.278Z,11.60
2023-01-04T09:12:48.812Z,11.60
2023-01-04T09:15:18.444Z,11.60
2023-01-04T09:18:20.470Z,11.70
2023-01-04T09:20:38.361Z,11.70
2023-01-04T09:23:06.764Z,11.70
2023-01-04T09:25:35.211Z,11.70
2023-01-04T09:28:03.750Z,11.70
2023-01-04T09:30:32.488Z,11.80
2023-01-04T09:33:01.009Z,11.70
2023-01-04T09:35:29.453Z,11.80
2023-01-04T09:37:59.359Z,11.80
2023-01-04T09:40:34.445Z,11.80
2023-01-04T09:43:20.987Z,11.90
2023-01-04T09:45:55.601Z,11.80
2023-01-04T09:48:30.175Z,11.80
2023-01-04T09:51:02.452Z,11.80
2023-01-04T09:53:36.437Z,11.80
2023-01-04T09:56:10.928Z,11.90
2023-01-04T09:58:42.195Z,11.80
2023-01-04T10:01:16.202Z,11.80
2023-01-04T10:03:52.895Z,11.80
2023-01-04T10:06:21.444Z,11.90
2023-01-04T10:08:51.389Z,11.90
2023-01-04T10:11:31.073Z,11.90
2023-01-04T10:14:17.982Z,11.90
2023-01-04T10:17:28.098Z,12.00
2023-01-04T10:23:22.783Z,11.90
2023-01-04T10:25:57.581Z,12.00
2023-01-04T10:28:39.345Z,11.90
2023-01-04T10:31:39.780Z,12.00
2023-01-04T10:34:18.429Z,12.00
2023-01-04T10:36:48.715Z,11.90
2023-01-04T10:39:18.976Z,12.00
2023-01-04T10:41:54.604Z,12.00
2023-01-04T10:44:29.909Z,12.00
2023-01-04T10:47:05.432Z,12.00
2023-01-04T10:49:41.232Z,12.00
2023-01-04T10:52:17.215Z,12.00
2023-01-04T10:54:49.875Z,12.00
2023-01-04T10:57:24.657Z,12.00
2023-01-04T10:59:58.081Z,12.00
2023-01-04T11:02:34.640Z,12.10
2023-01-04T11:05:12.834Z,12.10
2023-01-04T11:07:46.686Z,12.10
2023-01-04T11:10:20.626Z,12.10
2023-01-04T11:12:50.662Z,12.10
2023-01-04T11:15:19.245Z,12.10
2023-01-04T11:17:49.293Z,12.10
2023-01-04T11:20:17.911Z,12.10
2023-01-04T11:22:54.182Z,12.10
2023-01-04T11:25:34.975Z,12.20
2023-01-04T11:28:14.236Z,12.20
2023-01-04T11:30:52.264Z,12.20
2023-01-04T11:33:22.522Z,12.20
2023-01-04T11:35:52.630Z,12.30
2023-01-04T11:38:22.941Z,12.20
2023-01-04T11:41:00.113Z,12.20
2023-01-04T11:43:30.938Z,12.20
2023-01-04T11:46:02.793Z,12.20
2023-01-04T11:48:41.828Z,12.20
2023-01-04T11:51:33.879Z,12.20
2023-01-04T11:54:05.640Z,12.30
2023-01-04T11:56:37.452Z,12.30
2023-01-04T11:59:16.663Z,12.30
2023-01-04T12:01:53.028Z,12.40
2023-01-04T12:04:23.148Z,12.40
2023-01-04T12:06:53.304Z,12.40
2023-01-04T12:09:22.716Z,12.40
2023-01-04T12:11:53.109Z,12.50
2023-01-04T12:14:26.164Z,12.50
2023-01-04T12:17:07.448Z,12.50
2023-01-04T12:19:37.529Z,12.50
2023-01-04T12:22:15.911Z,12.50
2023-01-04T12:24:46.431Z,12.50
2023-01-04T12:27:16.034Z,12.50
2023-01-04T12:29:55.832Z,12.50
2023-01-04T12:32:45.342Z,12.60
2023-01-04T12:36:03.434Z,12.60
2023-01-04T12:39:05.456Z,12.60
2023-01-04T12:42:18.728Z,12.70
2023-01-04T12:45:24.038Z,12.70
2023-01-04T12:48:11.509Z,12.70
2023-01-04T12:51:46.945Z,12.70
2023-01-04T12:54:31.827Z,12.70
2023-01-04T12:57:25.669Z,12.80
2023-01-04T12:59:56.000Z,12.80
2023-01-04T13:02:27.507Z,12.80
2023-01-04T13:05:25.777Z,12.80
2023-01-04T13:07:49.115Z,12.90
2023-01-04T13:10:29.893Z,12.90
2023-01-04T13:13:22.929Z,12.90
2023-01-04T13:16:03.033Z,12.90
2023-01-04T13:18:46.028Z,12.90
2023-01-04T13:21:18.084Z,12.90
2023-01-04T13:23:52.373Z,13.00
2023-01-04T13:26:35.063Z,13.00
2023-01-04T13:29:08.963Z,13.00
2023-01-04T13:31:52.647Z,13.00
2023-01-04T13:34:25.300Z,13.00
2023-01-04T13:37:05.792Z,13.00
2023-01-04T13:39:34.715Z,12.90
2023-01-04T13:42:04.880Z,12.90
2023-01-04T13:45:20.208Z,12.90
2023-01-04T13:47:51.586Z,12.90
2023-01-04T13:50:29.508Z,12.90
2023-01-04T13:53:13.542Z,12.90
2023-01-04T13:55:41.999Z,12.90
2023-01-04T13:58:18.760Z,13.00
2023-01-04T14:00:51.365Z,12.90
2023-01-04T14:03:36.059Z,12.90
2023-01-04T14:06:20.363Z,12.90
2023-01-04T14:08:57.161Z,12.90
2023-01-04T14:11:46.650Z,12.90
2023-01-04T14:14:31.351Z,12.90
2023-01-04T14:17:15.433Z,12.90
2023-01-04T14:19:47.404Z,12.90
2023-01-04T14:22:37.682Z,12.80
2023-01-04T14:25:48.592Z,12.80
2023-01-04T14:28:28.801Z,12.80
2023-01-04T14:31:13.079Z,12.70
2023-01-04T14:33:45.474Z,12.70
2023-01-04T14:36:18.433Z,12.70
2023-01-04T14:38:55.472Z,12.70
2023-01-04T14:41:26.657Z,12.60
2023-01-04T14:44:06.887Z,12.60
2023-01-04T14:46:35.352Z,12.60
2023-01-04T14:49:03.811Z,12.60
2023-01-04T14:51:34.725Z,12.60
2023-01-04T14:54:04.785Z,12.60
2023-01-04T14:56:33.827Z,12.70
2023-01-04T14:59:02.357Z,12.60
2023-01-04T15:01:31.001Z,12.60
2023-01-04T15:03:59.603Z,12.60
2023-01-04T15:06:28.095Z,12.60
2023-01-04T15:08:56.532Z,12.60
2023-01-04T15:11:26.633Z,12.60
2023-01-04T15:13:55.080Z,12.60
2023-01-04T15:16:23.540Z,12.60
2023-01-04T15:18:52.096Z,12.60
2023-01-04T15:21:20.612Z,12.60
2023-01-04T15:23:49.061Z,12.50
2023-01-04T15:26:17.524Z,12.60
2023-01-04T15:28:47.394Z,12.50
2023-01-04T15:31:17.219Z,12.50
2023-01-04T15:33:48.197Z,12.50
2023-01-04T15:36:23.709Z,12.50
2023-01-04T15:38:55.666Z,12.50
2023-01-04T15:41:41.405Z,12.50
2023-01-04T15:44:12.350Z,12.50
2023-01-04T15:46:41.112Z,12.50
2023-01-04T15:49:16.635Z,12.50
2023-01-04T15:51:45.888Z,12.40
2023-01-04T15:54:14.409Z,12.40
2023-01-04T15:56:42.813Z,12.40
2023-01-04T15:59:13.682Z,12.40
2023-01-04T16:01:43.283Z,12.40
2023-01-04T16:04:12.479Z,12.30
2023-01-04T16:06:41.127Z,12.30
2023-01-04T16:09:09.626Z,12.30
2023-01-04T16:11:58.126Z,12.30
2023-01-04T16:14:27.974Z,12.30
2023-01-04T16:16:56.956Z,12.30
2023-01-04T16:19:25.405Z,12.30
2023-01-04T16:21:53.885Z,12.30
2023-01-04T16:25:00.452Z,12.30
2023-01-04T16:27:10.799Z,12.30
2023-01-04T16:29:40.587Z,12.30
2023-01-04T16:32:09.031Z,12.30
2023-01-04T16:34:37.859Z,12.20
2023-01-04T16:37:06.676Z,12.30
2023-01-04T16:40:05.321Z,12.30
2023-01-04T16:42:23.944Z,12.30
2023-01-04T16:44:53.912Z,12.30
2023-01-04T16:47:22.422Z,12.30
2023-01-04T16:49:54.349Z,12.30
2023-01-04T16:52:26.673Z,12.30
2023-01-04T16:54:55.203Z,12.30
2023-01-04T16:57:23.957Z,12.30
2023-01-04T16:59:53.791Z,12.30
2023-01-04T17:02:23.255Z,12.30
2023-01-04T17:04:55.397Z,12.30
2023-01-04T17:07:24.257Z,12.20
2023-01-04T17:09:53.003Z,12.20
2023-01-04T17:15:43.474Z,12.20
2023-01-04T17:18:01.219Z,12.10
2023-01-04T17:20:29.683Z,12.10
2023-01-04T17:22:58.203Z,12.10
2023-01-04T17:25:26.663Z,12.10
2023-01-04T17:27:55.108Z,12.10
2023-01-04T17:30:25.034Z,12.10
2023-01-04T17:32:53.509Z,12.10
2023-01-04T17:35:21.968Z,12.10
2023-01-04T17:37:50.482Z,12.10
2023-01-04T17:40:22.983Z,12.00
2023-01-04T17:42:52.146Z,12.10
2023-01-04T17:45:21.335Z,12.10
2023-01-04T17:47:51.580Z,12.10
2023-01-04T17:50:20.641Z,12.10
2023-01-04T17:52:50.646Z,12.20
2023-01-04T17:55:19.573Z,12.20
2023-01-04T17:57:48.097Z,12.10
2023-01-04T18:00:17.156Z,12.10
2023-01-04T18:02:45.875Z,12.00
2023-01-04T18:05:16.019Z,12.00
2023-01-04T18:07:44.491Z,12.00
2023-01-04T18:10:21.493Z,12.00
2023-01-04T18:13:01.716Z,12.00
2023-01-04T18:15:30.305Z,12.00
2023-01-04T18:17:58.773Z,12.00
2023-01-04T18:20:28.677Z,12.00
2023-01-04T18:22:57.101Z,12.00
2023-01-04T18:25:26.368Z,11.90
2023-01-04T18:27:54.825Z,12.00
2023-01-04T18:30:23.286Z,12.00
2023-01-04T18:32:51.980Z,12.00
2023-01-04T18:35:20.403Z,11.90
2023-01-04T18:37:50.312Z,12.00
2023-01-04T18:40:18.918Z,12.00
2023-01-04T18:42:48.350Z,12.00
2023-01-04T18:45:17.606Z,12.00
2023-01-04T18:47:47.990Z,11.90
2023-01-04T18:50:16.933Z,11.90
2023-01-04T18:52:45.730Z,11.80
2023-01-04T18:55:16.019Z,11.70
2023-01-04T18:57:44.547Z,11.70
2023-01-04T19:00:14.356Z,11.60
2023-01-04T19:02:43.014Z,11.60
2023-01-04T19:05:13.379Z,11.50
2023-01-04T19:07:41.897Z,11.50
2023-01-04T19:10:10.657Z,11.50
2023-01-04T19:12:40.510Z,11.40
2023-01-04T19:15:10.529Z,11.40
2023-01-04T19:17:39.090Z,11.40
2023-01-04T19:20:08.718Z,11.40
2023-01-04T19:22:37.183Z,11.40
2023-01-04T19:25:06.773Z,11.40
2023-01-04T19:27:35.734Z,11.50
2023-01-04T19:30:06.703Z,11.50
2023-01-04T19:32:35.170Z,11.50
2023-01-04T19:35:03.709Z,11.50
2023-01-04T19:37:32.191Z,11.60
2023-01-04T19:40:00.655Z,11.50
2023-01-04T19:42:29.162Z,11.60
2023-01-04T19:44:57.601Z,11.60
2023-01-04T19:47:27.385Z,11.60
2023-01-04T19:49:55.781Z,11.60
2023-01-04T19:52:24.246Z,11.70
2023-01-04T19:54:52.861Z,11.70
2023-01-04T19:57:21.297Z,11.70
2023-01-04T19:59:49.691Z,11.70
2023-01-04T20:02:18.382Z,11.70
2023-01-04T20:04:48.383Z,11.80
2023-01-04T20:07:16.838Z,11.80
2023-01-04T20:09:45.358Z,11.80
2023-01-04T20:12:13.842Z,11.80
2023-01-04T20:14:42.353Z,11.80
2023-01-04T20:17:10.899Z,11.80
2023-01-04T20:19:39.453Z,11.80
2023-01-04T20:22:10.564Z,11.80
2023-01-04T20:24:39.103Z,11.80
2023-01-04T20:27:07.612Z,11.80
2023-01-04T20:29:36.067Z,11.80
2023-01-04T20:32:04.620Z,11.80
2023-01-04T20:34:33.418Z,11.90
2023-01-04T20:37:01.868Z,11.90
2023-01-04T20:39:31.709Z,11.90
2023-01-04T20:42:17.687Z,11.90
2023-01-04T20:44:46.172Z,11.90
2023-01-04T20:47:14.629Z,11.90
2023-01-04T20:49:43.080Z,11.90
2023-01-04T20:52:11.579Z,11.90
2023-01-04T20:54:41.444Z,12.00
2023-01-04T20:57:10.011Z,11.90
2023-01-04T20:59:38.461Z,11.80
2023-01-04T21:02:07.037Z,11.80
2023-01-04T21:04:35.661Z,11.80
2023-01-04T21:07:04.122Z,11.70
2023-01-04T21:09:32.585Z,11.80
2023-01-04T21:12:06.902Z,11.70
2023-01-04T21:14:38.108Z,11.70
2023-01-04T21:17:06.659Z,11.70
2023-01-04T21:19:35.442Z,11.60
2023-01-04T21:22:04.097Z,11.60
2023-01-04T21:24:33.293Z,11.60
2023-01-04T21:27:03.629Z,11.70
2023-01-04T21:29:32.346Z,11.70
2023-01-04T21:32:00.754Z,11.70
2023-01-04T21:34:31.469Z,11.70
2023-01-04T21:37:00.025Z,11.80
2023-01-04T21:39:28.489Z,11.80
2023-01-04T21:41:57.091Z,11.90
2023-01-04T21:44:26.905Z,12.00
2023-01-04T21:46:55.458Z,11.90
2023-01-04T21:49:24.046Z,11.90
2023-01-04T21:51:52.788Z,12.00
2023-01-04T21:54:21.337Z,12.00
2023-01-04T21:56:50.514Z,12.10
2023-01-04T21:59:19.045Z,11.90
2023-01-04T22:01:49.094Z,11.90
2023-01-04T22:04:17.753Z,11.90
2023-01-04T22:06:46.262Z,11.90
2023-01-04T22:09:14.789Z,11.80
2023-01-04T22:11:43.456Z,11.80
2023-01-04T22:14:12.158Z,11.90
2023-01-04T22:16:40.722Z,11.80
2023-01-04T22:19:12.422Z,11.70
2023-01-04T22:21:41.510Z,11.80
2023-01-04T22:24:13.011Z,11.60
2023-01-04T22:26:42.336Z,11.60
2023-01-04T22:29:12.172Z,11.70
2023-01-04T22:31:40.748Z,11.50
2023-01-04T22:34:10.772Z,11.50
2023-01-04T22:36:39.213Z,11.50
2023-01-04T22:39:07.843Z,11.50
2023-01-04T22:41:36.312Z,11.50
2023-01-04T22:44:06.587Z,11.50
2023-01-04T22:46:36.775Z,11.50
2023-01-04T22:49:05.613Z,11.50
2023-01-04T22:51:35.430Z,11.50
2023-01-04T22:54:05.642Z,11.50
2023-01-04T22:56:34.276Z,11.50
2023-01-04T22:59:02.735Z,11.50
2023-01-04T23:01:33.419Z,11.50
2023-01-04T23:04:04.316Z,11.50
2023-01-04T23:06:34.803Z,11.60
2023-01-04T23:09:05.598Z,11.50
2023-01-04T23:11:35.298Z,11.50
2023-01-04T23:14:04.954Z,11.50
2023-01-04T23:16:33.825Z,11.50
2023-01-04T23:19:03.239Z,11.40
2023-01-04T23:21:32.755Z,11.40
2023-01-04T23:24:03.228Z,11.40
2023-01-04T23:26:33.213Z,11.40
2023-01-04T23:29:02.453Z,11.40
2023-01-04T23:31:33.194Z,11.40
2023-01-04T23:34:03.782Z,11.40
2023-01-04T23:36:34.233Z,11.40
2023-01-04T23:39:06.761Z,11.40
2023-01-04T23:41:47.989Z,11.40
2023-01-04T23:44:19.021Z,11.30
2023-01-04T23:46:47.927Z,11.30
2023-01-04T23:49:16.363Z,11.20
2023-01-04T23:51:44.832Z,11.20
2023-01-04T23:54:14.655Z,11.20
2023-01-04T23:56:43.361Z,11.10
2023-01-04T23:59:12.495Z,11.10
